Time;durP1;ratioP1;P1;durP2;ratioP2;P2;SDS_P1;SDS_P2;PMS_P1;PMS_P2;Temp;Humidity;BMP_temperature;BMP_pressure;BME280_temperature;BME280_humidity;BME280_pressure;Samples;Min_cycle;Max_cycle;Signal;HPM_P1;HPM_P2
2023/03/10 00:01:58;;;;;;;2.03;1.93;;;;;;;;;;5123396;27;20477;-76
2023/03/10 00:04:30;;;;;;;2.23;1.80;;;;;;;;;;5118642;27;20473;-76
2023/03/10 00:07:12;;;;;;;3.40;2.07;;;;;;;;;;5122227;27;20447;-76
2023/03/10 00:09:53;;;;;;;4.13;2.27;;;;;;;;;;5121997;27;20451;-77
2023/03/10 00:12:30;;;;;;;3.23;1.93;;;;;;;;;;5121756;27;20473;-76
2023/03/10 00:15:10;;;;;;;2.30;1.90;;;;;;;;;;5121040;27;20474;-77
2023/03/10 00:17:48;;;;;;;3.03;1.90;;;;;;;;;;5135765;27;20446;-75
2023/03/10 00:20:20;;;;;;;3.10;1.80;;;;;;;;;;5140470;27;20893;-76
2023/03/10 00:23:03;;;;;;;1.97;1.83;;;;;;;;;;5139559;27;20454;-76
2023/03/10 00:25:33;;;;;;;3.17;1.70;;;;;;;;;;5140108;27;20418;-78
2023/03/10 00:28:04;;;;;;;3.77;2.13;;;;;;;;;;5140378;27;20521;-75
2023/03/10 00:30:51;;;;;;;3.20;1.93;;;;;;;;;;5139175;27;20463;-77
2023/03/10 00:33:25;;;;;;;6.10;2.40;;;;;;;;;;5141202;27;20897;-77
2023/03/10 00:36:10;;;;;;;3.43;2.40;;;;;;;;;;5141167;27;20502;-76
2023/03/10 00:38:42;;;;;;;2.10;1.90;;;;;;;;;;5139243;27;20476;-75
2023/03/10 00:41:17;;;;;;;1.97;1.87;;;;;;;;;;5140164;27;20454;-76
2023/03/10 00:43:48;;;;;;;2.03;1.83;;;;;;;;;;5140706;27;20462;-76
2023/03/10 00:46:17;;;;;;;3.00;2.70;;;;;;;;;;5139648;27;20461;-76
2023/03/10 00:48:51;;;;;;;8.53;5.00;;;;;;;;;;5139999;27;20731;-78
2023/03/10 00:51:22;;;;;;;3.60;3.40;;;;;;;;;;5139525;27;20460;-77
2023/03/10 00:53:52;;;;;;;4.00;2.43;;;;;;;;;;5138526;27;20466;-77
2023/03/10 00:56:26;;;;;;;4.00;2.47;;;;;;;;;;5136165;27;20464;-78
2023/03/10 00:59:03;;;;;;;3.47;2.27;;;;;;;;;;5135195;27;20501;-78
2023/03/10 01:01:34;;;;;;;3.00;2.30;;;;;;;;;;5135164;27;20814;-77
2023/03/10 01:04:12;;;;;;;3.03;2.20;;;;;;;;;;5134810;27;21239;-76
2023/03/10 01:06:55;;;;;;;3.43;1.87;;;;;;;;;;5132389;27;20732;-75
2023/03/10 01:12:07;;;;;;;4.30;1.70;;;;;;;;;;5138143;27;20503;-77
2023/03/10 01:14:51;;;;;;;2.57;1.67;;;;;;;;;;5142218;27;20462;-76
2023/03/10 01:17:22;;;;;;;2.03;1.90;;;;;;;;;;5130086;27;20486;-75
2023/03/10 01:19:52;;;;;;;1.60;1.50;;;;;;;;;;5122170;28;20471;-76
2023/03/10 01:22:26;;;;;;;3.07;1.90;;;;;;;;;;5121288;27;20447;-77
2023/03/10 01:24:57;;;;;;;2.00;1.77;;;;;;;;;;5122087;27;20515;-76
2023/03/10 01:27:29;;;;;;;1.70;1.60;;;;;;;;;;5121681;27;20447;-76
2023/03/10 01:30:00;;;;;;;2.23;1.87;;;;;;;;;;5122248;27;20492;-75
2023/03/10 01:32:31;;;;;;;3.60;2.03;;;;;;;;;;5124003;27;21018;-76
2023/03/10 01:35:01;;;;;;;2.50;1.70;;;;;;;;;;5142043;27;20974;-75
2023/03/10 01:37:37;;;;;;;2.03;1.90;;;;;;;;;;5141098;27;20438;-76
2023/03/10 01:40:08;;;;;;;1.73;1.53;;;;;;;;;;5142880;27;20563;-75
2023/03/10 01:42:37;;;;;;;6.70;1.73;;;;;;;;;;5143743;27;20471;-74
2023/03/10 01:45:14;;;;;;;1.90;1.80;;;;;;;;;;5146340;27;20541;-77
2023/03/10 01:47:45;;;;;;;2.93;1.60;;;;;;;;;;5144374;27;20478;-76
2023/03/10 01:50:19;;;;;;;2.00;1.80;;;;;;;;;;5143725;27;20428;-76
2023/03/10 01:52:57;;;;;;;3.00;1.90;;;;;;;;;;5143722;27;20449;-76
2023/03/10 01:55:28;;;;;;;1.67;1.50;;;;;;;;;;5143480;27;20469;-76
2023/03/10 01:57:59;;;;;;;2.70;1.67;;;;;;;;;;5142821;27;20454;-76
2023/03/10 02:00:28;;;;;;;3.10;2.33;;;;;;;;;;5143291;27;20503;-76
2023/03/10 02:02:57;;;;;;;1.80;1.70;;;;;;;;;;5142377;27;20993;-76
2023/03/10 02:05:41;;;;;;;2.70;1.60;;;;;;;;;;5142567;27;20536;-77
2023/03/10 02:08:13;;;;;;;1.53;1.43;;;;;;;;;;5141927;27;20477;-76
2023/03/10 02:10:46;;;;;;;2.63;1.47;;;;;;;;;;5140313;27;20442;-75
2023/03/10 02:13:15;;;;;;;2.83;1.60;;;;;;;;;;5140931;27;20453;-76
2023/03/10 02:15:59;;;;;;;3.37;1.53;;;;;;;;;;5142982;27;20524;-76
2023/03/10 02:18:42;;;;;;;2.60;1.10;;;;;;;;;;5122828;28;20437;-77
2023/03/10 02:21:16;;;;;;;1.57;1.07;;;;;;;;;;5122938;27;20475;-77
2023/03/10 02:23:49;;;;;;;1.77;1.20;;;;;;;;;;5122849;28;20483;-76
2023/03/10 02:26:26;;;;;;;1.60;1.50;;;;;;;;;;5121941;27;20994;-75
2023/03/10 02:28:57;;;;;;;1.50;1.40;;;;;;;;;;5118229;28;20552;-76
2023/03/10 02:31:31;;;;;;;1.37;1.10;;;;;;;;;;5117166;28;20423;-76
2023/03/10 02:33:59;;;;;;;1.37;1.27;;;;;;;;;;5117744;27;20986;-76
2023/03/10 02:36:32;;;;;;;1.47;1.10;;;;;;;;;;5117712;27;20486;-76
2023/03/10 02:39:08;;;;;;;1.10;1.00;;;;;;;;;;5116993;28;20431;-75
2023/03/10 02:41:39;;;;;;;1.27;1.17;;;;;;;;;;5115544;27;20538;-75
2023/03/10 02:44:12;;;;;;;1.20;1.10;;;;;;;;;;5114730;27;20973;-77
2023/03/10 02:46:43;;;;;;;1.03;1.03;;;;;;;;;;5116268;27;20518;-76
2023/03/10 02:49:17;;;;;;;3.43;1.33;;;;;;;;;;5116278;27;20451;-76
2023/03/10 02:51:48;;;;;;;1.57;1.20;;;;;;;;;;5114718;28;20503;-75
2023/03/10 02:54:17;;;;;;;1.07;1.03;;;;;;;;;;5114514;28;20880;-76
2023/03/10 02:56:52;;;;;;;1.00;1.00;;;;;;;;;;5114792;27;20458;-75
2023/03/10 02:59:29;;;;;;;0.80;0.80;;;;;;;;;;5115977;27;20519;-74
2023/03/10 03:02:09;;;;;;;2.40;1.23;;;;;;;;;;5115741;28;20442;-76
2023/03/10 03:04:38;;;;;;;1.10;0.93;;;;;;;;;;5115323;28;20504;-75
2023/03/10 03:07:12;;;;;;;1.60;1.40;;;;;;;;;;5116128;28;20457;-76
2023/03/10 03:09:43;;;;;;;1.03;1.00;;;;;;;;;;5117685;28;20437;-75
2023/03/10 03:12:15;;;;;;;1.70;1.10;;;;;;;;;;5117954;27;20484;-76
2023/03/10 03:14:54;;;;;;;1.10;1.10;;;;;;;;;;5119959;27;20547;-76
2023/03/10 03:17:25;;;;;;;1.37;1.17;;;;;;;;;;5138110;27;20896;-75
2023/03/10 03:20:11;;;;;;;1.67;1.10;;;;;;;;;;5129054;27;21161;-75
2023/03/10 03:22:42;;;;;;;1.50;1.30;;;;;;;;;;5132208;28;20434;-77
2023/03/10 03:25:15;;;;;;;3.10;1.30;;;;;;;;;;5136909;27;20483;-76
2023/03/10 03:27:48;;;;;;;1.10;1.10;;;;;;;;;;5136717;27;20446;-77
2023/03/10 03:30:24;;;;;;;1.80;1.03;;;;;;;;;;5136499;27;20430;-76
2023/03/10 03:33:05;;;;;;;1.50;1.00;;;;;;;;;;5139372;28;20487;-75
2023/03/10 03:35:37;;;;;;;1.17;1.10;;;;;;;;;;5139822;27;20436;-76
2023/03/10 03:38:08;;;;;;;2.93;1.00;;;;;;;;;;5138110;27;20973;-75
2023/03/10 03:40:45;;;;;;;1.90;1.30;;;;;;;;;;5138682;27;20474;-77
2023/03/10 03:43:14;;;;;;;2.50;1.20;;;;;;;;;;5138183;27;20462;-76
2023/03/10 03:45:51;;;;;;;1.23;1.13;;;;;;;;;;5138520;27;21016;-76
2023/03/10 03:48:27;;;;;;;2.30;1.40;;;;;;;;;;5117625;28;20482;-76
2023/03/10 03:51:01;;;;;;;0.83;0.83;;;;;;;;;;5113933;27;20451;-75
2023/03/10 03:53:28;;;;;;;1.10;0.80;;;;;;;;;;5111963;28;20451;-76
2023/03/10 03:56:00;;;;;;;2.33;2.23;;;;;;;;;;5112082;27;20817;-75
2023/03/10 03:58:30;;;;;;;0.87;0.87;;;;;;;;;;5112022;27;20950;-76
2023/03/10 04:01:13;;;;;;;0.80;0.80;;;;;;;;;;5113764;27;20484;-75
2023/03/10 04:03:47;;;;;;;1.00;1.00;;;;;;;;;;5114447;27;20865;-76
2023/03/10 04:06:23;;;;;;;0.60;0.60;;;;;;;;;;5116050;27;20882;-76
2023/03/10 04:08:52;;;;;;;0.70;0.70;;;;;;;;;;5114511;28;20934;-75
2023/03/10 04:11:30;;;;;;;0.77;0.77;;;;;;;;;;5113105;28;20938;-76
2023/03/10 04:14:05;;;;;;;0.73;0.73;;;;;;;;;;5119969;27;20477;-77
2023/03/10 04:16:45;;;;;;;0.73;0.73;;;;;;;;;;5133642;27;20449;-76
2023/03/10 04:19:19;;;;;;;1.13;0.60;;;;;;;;;;5132264;27;20963;-76
2023/03/10 04:21:47;;;;;;;1.37;1.00;;;;;;;;;;5132115;28;20522;-77
2023/03/10 04:24:17;;;;;;;1.07;1.00;;;;;;;;;;5132439;27;20486;-75
2023/03/10 04:26:48;;;;;;;0.90;0.80;;;;;;;;;;5132481;27;20539;-76
2023/03/10 04:29:17;;;;;;;0.80;0.80;;;;;;;;;;5132593;27;20968;-77
2023/03/10 04:31:57;;;;;;;0.90;0.90;;;;;;;;;;5132759;27;20885;-77
2023/03/10 04:34:29;;;;;;;0.97;0.60;;;;;;;;;;5132749;27;20671;-77
2023/03/10 04:36:57;;;;;;;1.47;0.83;;;;;;;;;;5133275;27;20478;-77
2023/03/10 04:39:28;;;;;;;0.90;0.90;;;;;;;;;;5138168;27;20434;-77
2023/03/10 04:41:56;;;;;;;0.60;0.60;;;;;;;;;;5138101;27;20509;-75
2023/03/10 04:44:30;;;;;;;1.70;0.90;;;;;;;;;;5138031;27;20470;-76
2023/03/10 04:47:06;;;;;;;1.70;1.60;;;;;;;;;;5137061;27;20445;-76
2023/03/10 04:49:37;;;;;;;1.30;1.20;;;;;;;;;;5136674;27;20457;-77
2023/03/10 04:52:08;;;;;;;1.70;1.60;;;;;;;;;;5136376;27;20484;-76
2023/03/10 04:54:43;;;;;;;0.93;0.90;;;;;;;;;;5136741;27;21264;-75
2023/03/10 04:57:19;;;;;;;1.10;1.00;;;;;;;;;;5136582;27;20450;-75
2023/03/10 04:59:47;;;;;;;1.63;0.90;;;;;;;;;;5138562;27;20477;-74
2023/03/10 05:02:21;;;;;;;1.67;0.97;;;;;;;;;;5140471;27;20502;-75
2023/03/10 05:04:52;;;;;;;2.70;1.03;;;;;;;;;;5141450;27;20526;-76
2023/03/10 05:07:21;;;;;;;4.37;3.50;;;;;;;;;;5145205;27;20442;-77
2023/03/10 05:09:52;;;;;;;2.17;1.27;;;;;;;;;;5143972;27;20450;-75
2023/03/10 05:12:25;;;;;;;0.87;0.70;;;;;;;;;;5140927;27;20818;-76
2023/03/10 05:17:42;;;;;;;0.80;0.70;;;;;;;;;;5141414;27;20438;-76
2023/03/10 05:20:14;;;;;;;1.00;1.00;;;;;;;;;;5142491;27;20473;-75
2023/03/10 05:22:45;;;;;;;2.33;1.00;;;;;;;;;;5141114;27;20453;-76
2023/03/10 05:25:15;;;;;;;1.13;0.90;;;;;;;;;;5141497;27;20830;-76
2023/03/10 05:27:45;;;;;;;1.73;1.13;;;;;;;;;;5141962;27;20461;-76
2023/03/10 05:30:16;;;;;;;1.67;1.13;;;;;;;;;;5141960;27;20450;-75
2023/03/10 05:32:46;;;;;;;0.70;0.70;;;;;;;;;;5141212;27;20525;-76
2023/03/10 05:35:16;;;;;;;0.93;0.93;;;;;;;;;;5141060;27;20450;-77
2023/03/10 05:37:48;;;;;;;2.03;1.20;;;;;;;;;;5142634;27;20445;-76
2023/03/10 05:40:23;;;;;;;2.70;1.10;;;;;;;;;;5142515;27;20473;-77
2023/03/10 05:42:55;;;;;;;2.40;1.07;;;;;;;;;;5140773;27;20446;-76
2023/03/10 05:45:25;;;;;;;3.70;1.90;;;;;;;;;;5142695;27;20446;-76
2023/03/10 05:48:09;;;;;;;2.00;1.30;;;;;;;;;;5142358;27;20450;-76
2023/03/10 05:51:03;;;;;;;1.40;1.30;;;;;;;;;;5142118;27;20427;-75
2023/03/10 05:53:34;;;;;;;1.20;1.20;;;;;;;;;;5140138;27;20519;-76
2023/03/10 05:56:06;;;;;;;1.27;1.20;;;;;;;;;;5138692;27;21009;-76
2023/03/10 05:58:36;;;;;;;2.33;2.13;;;;;;;;;;5141554;27;20445;-75
2023/03/10 06:01:09;;;;;;;1.43;1.33;;;;;;;;;;5139513;27;20482;-76
2023/03/10 06:03:43;;;;;;;4.00;1.80;;;;;;;;;;5136919;27;20519;-76
2023/03/10 06:06:14;;;;;;;1.13;1.03;;;;;;;;;;5137956;27;20481;-76
2023/03/10 06:08:45;;;;;;;1.17;1.17;;;;;;;;;;5140891;27;20481;-75
2023/03/10 06:11:17;;;;;;;1.20;1.20;;;;;;;;;;5141230;27;20483;-77
2023/03/10 06:13:45;;;;;;;1.40;1.40;;;;;;;;;;5140739;27;20466;-76
2023/03/10 06:16:18;;;;;;;5.73;3.43;;;;;;;;;;5136634;27;20528;-76
2023/03/10 06:18:47;;;;;;;3.07;1.17;;;;;;;;;;5115924;28;20485;-76
2023/03/10 06:21:18;;;;;;;1.57;1.40;;;;;;;;;;5116280;28;20562;-76
2023/03/10 06:23:46;;;;;;;1.37;1.27;;;;;;;;;;5115309;27;20471;-76
2023/03/10 06:26:15;;;;;;;1.80;1.10;;;;;;;;;;5115850;27;20457;-75
2023/03/10 06:28:44;;;;;;;1.50;1.33;;;;;;;;;;5115042;27;20451;-75
2023/03/10 06:31:18;;;;;;;1.43;1.13;;;;;;;;;;5115081;28;20492;-75
2023/03/10 06:34:03;;;;;;;1.93;1.30;;;;;;;;;;5114519;27;20944;-75
2023/03/10 06:36:39;;;;;;;1.00;1.00;;;;;;;;;;5114630;28;20435;-75
2023/03/10 06:39:27;;;;;;;3.50;1.90;;;;;;;;;;5116375;27;20529;-76
2023/03/10 06:42:07;;;;;;;1.33;1.23;;;;;;;;;;5123235;27;20509;-75
2023/03/10 06:44:36;;;;;;;0.70;0.70;;;;;;;;;;5121371;27;20482;-75
2023/03/10 06:47:09;;;;;;;1.40;0.90;;;;;;;;;;5117886;27;20469;-75
2023/03/10 06:49:44;;;;;;;0.60;0.60;;;;;;;;;;5117209;27;20461;-76
2023/03/10 06:52:25;;;;;;;0.93;0.83;;;;;;;;;;5117597;27;20442;-76
2023/03/10 06:55:00;;;;;;;0.93;0.83;;;;;;;;;;5113744;28;20561;-76
2023/03/10 06:57:31;;;;;;;0.50;0.50;;;;;;;;;;5113726;28;20537;-76
2023/03/10 07:00:06;;;;;;;0.80;0.80;;;;;;;;;;5113902;28;20443;-76
2023/03/10 07:02:34;;;;;;;0.80;0.70;;;;;;;;;;5114270;28;20980;-76
2023/03/10 07:05:05;;;;;;;1.30;0.90;;;;;;;;;;5114604;28;20458;-76
2023/03/10 07:07:35;;;;;;;2.10;1.40;;;;;;;;;;5113472;28;20484;-76
2023/03/10 07:10:09;;;;;;;1.00;1.00;;;;;;;;;;5112827;27;20458;-76
2023/03/10 07:12:41;;;;;;;0.80;0.80;;;;;;;;;;5112104;28;20452;-77
2023/03/10 07:15:09;;;;;;;0.90;0.90;;;;;;;;;;5113878;27;20574;-76
2023/03/10 07:17:40;;;;;;;1.80;1.00;;;;;;;;;;5126729;27;20430;-77
2023/03/10 07:20:18;;;;;;;0.80;0.80;;;;;;;;;;5133072;27;20449;-75
2023/03/10 07:22:47;;;;;;;1.23;0.80;;;;;;;;;;5134544;27;20473;-76
2023/03/10 07:25:27;;;;;;;0.90;0.90;;;;;;;;;;5135008;27;20450;-75
2023/03/10 07:28:01;;;;;;;1.23;0.90;;;;;;;;;;5132387;27;20454;-76
2023/03/10 07:30:38;;;;;;;1.90;1.07;;;;;;;;;;5134478;27;20468;-76
2023/03/10 07:33:38;;;;;;;1.07;1.03;;;;;;;;;;5134200;27;20486;-75
2023/03/10 07:36:08;;;;;;;1.20;1.10;;;;;;;;;;5134713;27;20831;-76
2023/03/10 07:38:37;;;;;;;0.97;0.97;;;;;;;;;;5135867;27;20540;-75
2023/03/10 07:41:20;;;;;;;1.23;1.10;;;;;;;;;;5134473;27;20484;-76
2023/03/10 07:44:10;;;;;;;1.10;0.97;;;;;;;;;;5135960;27;20465;-76
2023/03/10 07:46:43;;;;;;;1.97;1.50;;;;;;;;;;5136388;27;20485;-76
2023/03/10 07:49:51;;;;;;;2.13;1.20;;;;;;;;;;5136927;27;20800;-76
2023/03/10 07:52:26;;;;;;;5.10;3.00;;;;;;;;;;5072954;28;20440;-76
2023/03/10 07:54:56;;;;;;;2.50;1.20;;;;;;;;;;5079383;28;20468;-75
2023/03/10 07:57:25;;;;;;;1.50;1.37;;;;;;;;;;5111876;27;20445;-77
2023/03/10 07:59:56;;;;;;;1.43;1.13;;;;;;;;;;5135361;27;20971;-77
2023/03/10 08:02:27;;;;;;;1.33;1.20;;;;;;;;;;5135347;27;20499;-75
2023/03/10 08:05:03;;;;;;;1.20;0.97;;;;;;;;;;5133172;27;20493;-76
2023/03/10 08:07:48;;;;;;;1.13;1.03;;;;;;;;;;5136154;27;20506;-75
2023/03/10 08:10:26;;;;;;;1.77;1.20;;;;;;;;;;5134514;27;20434;-75
2023/03/10 08:13:16;;;;;;;1.20;0.90;;;;;;;;;;5137064;27;20456;-74
2023/03/10 08:18:35;;;;;;;1.27;1.20;;;;;;;;;;5129142;27;20441;-74
2023/03/10 08:21:08;;;;;;;0.80;0.80;;;;;;;;;;5140057;27;20477;-76
2023/03/10 08:23:48;;;;;;;1.07;0.80;;;;;;;;;;5149938;27;20461;-74
2023/03/10 08:29:12;;;;;;;0.93;0.90;;;;;;;;;;5137067;27;20975;-75
2023/03/10 08:31:50;;;;;;;2.23;0.80;;;;;;;;;;5136631;27;20445;-74
2023/03/10 08:34:23;;;;;;;0.97;0.97;;;;;;;;;;5116871;27;20469;-76
2023/03/10 08:36:54;;;;;;;0.70;0.70;;;;;;;;;;5119594;28;20454;-73
2023/03/10 08:39:25;;;;;;;1.40;1.00;;;;;;;;;;5122289;27;20439;-75
2023/03/10 08:41:56;;;;;;;1.17;1.00;;;;;;;;;;5122434;28;20500;-74
2023/03/10 08:44:27;;;;;;;1.57;0.80;;;;;;;;;;5127715;27;20480;-74
2023/03/10 08:46:58;;;;;;;2.07;0.90;;;;;;;;;;5141256;27;20450;-75
2023/03/10 08:49:31;;;;;;;1.20;0.87;;;;;;;;;;5139383;27;20457;-75
2023/03/10 08:52:09;;;;;;;1.20;0.83;;;;;;;;;;5140214;27;20438;-77
2023/03/10 08:54:48;;;;;;;0.77;0.77;;;;;;;;;;5138449;27;20845;-74
2023/03/10 08:57:26;;;;;;;1.00;1.00;;;;;;;;;;5140375;27;20430;-75
2023/03/10 09:00:00;;;;;;;3.13;0.77;;;;;;;;;;5140616;27;20471;-74
2023/03/10 09:02:35;;;;;;;1.23;0.90;;;;;;;;;;5138491;27;20572;-74
2023/03/10 09:08:08;;;;;;;1.30;1.20;;;;;;;;;;5124584;27;20422;-76
2023/03/10 09:10:55;;;;;;;0.97;0.97;;;;;;;;;;5138452;27;20453;-75
2023/03/10 09:13:33;;;;;;;3.07;0.80;;;;;;;;;;5129114;27;20461;-75
2023/03/10 09:16:24;;;;;;;1.70;0.70;;;;;;;;;;5137315;27;20980;-75
2023/03/10 09:19:03;;;;;;;2.67;0.80;;;;;;;;;;5136590;27;20462;-75
2023/03/10 09:21:43;;;;;;;1.87;1.10;;;;;;;;;;5136813;27;20804;-76
2023/03/10 09:24:16;;;;;;;2.50;1.00;;;;;;;;;;5137115;27;20523;-76
2023/03/10 09:26:51;;;;;;;3.90;1.17;;;;;;;;;;5139522;27;20450;-75
2023/03/10 09:29:38;;;;;;;1.33;1.30;;;;;;;;;;5139377;27;20516;-76
2023/03/10 09:32:10;;;;;;;1.23;1.13;;;;;;;;;;5138740;27;20499;-76
2023/03/10 09:34:44;;;;;;;1.97;1.20;;;;;;;;;;5138367;27;20505;-75
2023/03/10 09:37:14;;;;;;;3.10;1.23;;;;;;;;;;5137596;27;20495;-76
2023/03/10 09:39:44;;;;;;;3.30;0.83;;;;;;;;;;5136880;27;20595;-77
2023/03/10 09:42:32;;;;;;;1.80;1.13;;;;;;;;;;5136282;27;20527;-76
2023/03/10 09:45:12;;;;;;;1.17;1.07;;;;;;;;;;5136526;27;20475;-76
2023/03/10 09:48:03;;;;;;;2.00;1.73;;;;;;;;;;5138359;27;20521;-76
2023/03/10 09:50:40;;;;;;;2.33;1.00;;;;;;;;;;5139754;27;20470;-76
2023/03/10 09:53:23;;;;;;;4.33;1.00;;;;;;;;;;5139687;27;21116;-76
2023/03/10 09:56:10;;;;;;;1.27;0.93;;;;;;;;;;5139317;27;20529;-76
2023/03/10 09:58:52;;;;;;;2.93;1.27;;;;;;;;;;5137403;27;20450;-75
2023/03/10 10:01:24;;;;;;;2.13;1.10;;;;;;;;;;5138847;27;20450;-75
2023/03/10 10:04:10;;;;;;;3.30;1.33;;;;;;;;;;5138173;27;20462;-75
2023/03/10 10:06:48;;;;;;;0.93;0.90;;;;;;;;;;5138837;27;20475;-75
2023/03/10 10:09:27;;;;;;;2.23;1.00;;;;;;;;;;5137212;27;20456;-76
2023/03/10 10:11:58;;;;;;;4.43;3.00;;;;;;;;;;5138061;27;20438;-76
2023/03/10 10:14:29;;;;;;;3.93;1.47;;;;;;;;;;5136942;27;20474;-76
2023/03/10 10:17:05;;;;;;;2.10;1.37;;;;;;;;;;5127669;27;20443;-77
2023/03/10 10:19:38;;;;;;;2.93;1.03;;;;;;;;;;5119347;28;20438;-75
2023/03/10 10:22:18;;;;;;;2.50;1.93;;;;;;;;;;5119073;27;20477;-75
2023/03/10 10:25:03;;;;;;;1.20;1.00;;;;;;;;;;5118624;28;20526;-76
2023/03/10 10:27:36;;;;;;;3.40;1.30;;;;;;;;;;5117644;27;20450;-75
2023/03/10 10:30:21;;;;;;;3.53;1.33;;;;;;;;;;5118268;27;20475;-76
2023/03/10 10:33:09;;;;;;;2.00;1.00;;;;;;;;;;5117241;28;20560;-75
2023/03/10 10:35:41;;;;;;;3.37;1.80;;;;;;;;;;5117470;28;20433;-76
2023/03/10 10:38:23;;;;;;;1.67;0.90;;;;;;;;;;5120122;27;20443;-76
2023/03/10 10:41:12;;;;;;;2.90;1.20;;;;;;;;;;5119746;28;20530;-75
2023/03/10 10:43:50;;;;;;;1.20;1.00;;;;;;;;;;5117807;28;20547;-75
2023/03/10 10:46:57;;;;;;;1.63;1.33;;;;;;;;;;5120144;28;20450;-75
2023/03/10 10:49:30;;;;;;;4.33;1.17;;;;;;;;;;5120385;28;20423;-76
2023/03/10 10:52:19;;;;;;;2.00;1.00;;;;;;;;;;5118699;28;20492;-75
2023/03/10 10:55:18;;;;;;;2.33;1.00;;;;;;;;;;5118228;28;20474;-76
2023/03/10 10:57:57;;;;;;;2.87;1.23;;;;;;;;;;5116467;27;20431;-75
2023/03/10 11:00:29;;;;;;;1.67;1.30;;;;;;;;;;5119520;28;20946;-77
2023/03/10 11:03:07;;;;;;;3.40;1.10;;;;;;;;;;5116455;28;20482;-76
2023/03/10 11:05:41;;;;;;;1.37;1.17;;;;;;;;;;5119412;28;20444;-76
2023/03/10 11:08:49;;;;;;;2.00;1.00;;;;;;;;;;5120808;28;20553;-77
2023/03/10 11:11:26;;;;;;;3.17;1.30;;;;;;;;;;5117736;28;20850;-75
2023/03/10 11:14:24;;;;;;;2.73;1.20;;;;;;;;;;5123966;27;20591;-76
2023/03/10 11:16:53;;;;;;;2.00;0.93;;;;;;;;;;5132514;27;20994;-76
2023/03/10 11:19:36;;;;;;;3.93;1.00;;;;;;;;;;5144338;27;20458;-76
2023/03/10 11:22:28;;;;;;;4.03;1.07;;;;;;;;;;5143010;27;20474;-76
2023/03/10 11:25:00;;;;;;;0.80;0.73;;;;;;;;;;5147366;27;20470;-77
2023/03/10 11:27:38;;;;;;;1.90;0.97;;;;;;;;;;5148410;27;20462;-76
2023/03/10 11:30:18;;;;;;;1.60;1.20;;;;;;;;;;5149811;27;20453;-77
2023/03/10 11:33:00;;;;;;;1.70;0.90;;;;;;;;;;5150174;27;20450;-75
2023/03/10 11:35:34;;;;;;;2.00;0.90;;;;;;;;;;5150208;27;20441;-77
2023/03/10 11:38:16;;;;;;;1.07;0.93;;;;;;;;;;5150152;27;20453;-76
2023/03/10 11:40:55;;;;;;;1.60;1.20;;;;;;;;;;5145471;27;20476;-77
2023/03/10 11:43:42;;;;;;;3.40;1.17;;;;;;;;;;5141834;27;20560;-76
2023/03/10 11:46:24;;;;;;;1.57;0.97;;;;;;;;;;5142968;27;20430;-75
2023/03/10 11:49:06;;;;;;;1.60;1.20;;;;;;;;;;5145440;27;20440;-76
2023/03/10 11:54:31;;;;;;;2.23;0.80;;;;;;;;;;5140656;27;20477;-76
2023/03/10 11:57:08;;;;;;;2.10;0.70;;;;;;;;;;5140836;27;20464;-77
2023/03/10 11:59:38;;;;;;;1.40;0.97;;;;;;;;;;5138697;27;20456;-76
2023/03/10 12:02:11;;;;;;;3.27;0.83;;;;;;;;;;5137084;27;20480;-77
2023/03/10 12:04:51;;;;;;;0.80;0.77;;;;;;;;;;5139542;27;20494;-77
2023/03/10 12:07:26;;;;;;;2.77;0.90;;;;;;;;;;5140592;27;20421;-77
2023/03/10 12:10:05;;;;;;;1.90;1.10;;;;;;;;;;5139076;27;20527;-76
2023/03/10 12:12:40;;;;;;;2.13;1.30;;;;;;;;;;5139734;27;20426;-77
2023/03/10 12:15:17;;;;;;;2.83;1.00;;;;;;;;;;5140512;27;20455;-76
2023/03/10 12:17:56;;;;;;;0.77;0.77;;;;;;;;;;5140721;27;20982;-76
2023/03/10 12:20:40;;;;;;;1.97;0.80;;;;;;;;;;5143475;27;20453;-79
2023/03/10 12:23:31;;;;;;;1.80;0.97;;;;;;;;;;5141451;27;20473;-76
2023/03/10 12:26:02;;;;;;;0.93;0.87;;;;;;;;;;5141447;27;20875;-76
2023/03/10 12:28:44;;;;;;;0.77;0.73;;;;;;;;;;5141210;27;20528;-76
2023/03/10 12:31:34;;;;;;;1.50;0.80;;;;;;;;;;5140942;27;20453;-76
2023/03/10 12:34:22;;;;;;;0.90;0.90;;;;;;;;;;5140849;27;20458;-76
2023/03/10 12:36:55;;;;;;;0.60;0.60;;;;;;;;;;5140007;27;20437;-76
2023/03/10 12:39:49;;;;;;;0.87;0.73;;;;;;;;;;5142528;27;20437;-77
2023/03/10 12:42:28;;;;;;;3.90;1.70;;;;;;;;;;5142409;27;20477;-77
2023/03/10 12:45:05;;;;;;;0.77;0.77;;;;;;;;;;5144687;27;20469;-77
2023/03/10 12:47:46;;;;;;;0.60;0.60;;;;;;;;;;5144515;27;20935;-78
2023/03/10 12:50:24;;;;;;;1.80;0.97;;;;;;;;;;5143759;27;20453;-78
2023/03/10 12:52:57;;;;;;;0.87;0.67;;;;;;;;;;5141306;27;20826;-77
2023/03/10 12:55:33;;;;;;;1.10;1.00;;;;;;;;;;5142149;27;20457;-78
2023/03/10 12:58:15;;;;;;;0.87;0.63;;;;;;;;;;5141460;27;20484;-77
2023/03/10 13:00:51;;;;;;;0.97;0.87;;;;;;;;;;5140139;27;20498;-77
2023/03/10 13:03:36;;;;;;;0.70;0.70;;;;;;;;;;5134550;27;20466;-78
2023/03/10 13:09:13;;;;;;;0.77;0.77;;;;;;;;;;5142741;27;20963;-76
2023/03/10 13:11:42;;;;;;;0.60;0.60;;;;;;;;;;5148355;27;20452;-77
2023/03/10 13:14:12;;;;;;;0.70;0.70;;;;;;;;;;5146591;27;20439;-76
2023/03/10 13:16:41;;;;;;;1.30;1.00;;;;;;;;;;5144697;27;20437;-76
2023/03/10 13:19:20;;;;;;;0.90;0.50;;;;;;;;;;5144771;27;20453;-76
2023/03/10 13:21:47;;;;;;;0.70;0.70;;;;;;;;;;5143652;27;20445;-78
2023/03/10 13:24:27;;;;;;;0.97;0.53;;;;;;;;;;5142696;27;20488;-81
2023/03/10 13:27:05;;;;;;;1.13;0.63;;;;;;;;;;5143977;27;20450;-76
2023/03/10 13:29:34;;;;;;;0.57;0.57;;;;;;;;;;5143593;27;20482;-77
2023/03/10 13:32:07;;;;;;;0.93;0.70;;;;;;;;;;5141847;27;20442;-76
2023/03/10 13:34:35;;;;;;;0.70;0.70;;;;;;;;;;5143132;27;20470;-77
2023/03/10 13:37:04;;;;;;;1.40;1.30;;;;;;;;;;5142322;27;20579;-77
2023/03/10 13:39:32;;;;;;;0.60;0.60;;;;;;;;;;5139648;27;20449;-77
2023/03/10 13:42:02;;;;;;;0.80;0.60;;;;;;;;;;5139970;27;20454;-77
2023/03/10 13:44:33;;;;;;;1.63;0.90;;;;;;;;;;5138151;27;20867;-76
2023/03/10 13:47:05;;;;;;;2.17;0.70;;;;;;;;;;5139123;27;20976;-76
2023/03/10 13:49:33;;;;;;;1.13;0.70;;;;;;;;;;5138600;27;20877;-75
2023/03/10 13:52:12;;;;;;;0.60;0.60;;;;;;;;;;5138985;27;20449;-77
2023/03/10 13:54:49;;;;;;;2.30;0.80;;;;;;;;;;5139100;27;20462;-76
2023/03/10 13:57:20;;;;;;;0.50;0.50;;;;;;;;;;5137611;27;20446;-75
2023/03/10 13:59:52;;;;;;;0.60;0.60;;;;;;;;;;5138274;27;20423;-76
2023/03/10 14:02:26;;;;;;;10.50;0.90;;;;;;;;;;5140009;27;20874;-76
2023/03/10 14:05:10;;;;;;;0.43;0.43;;;;;;;;;;5138487;27;20495;-75
2023/03/10 14:08:01;;;;;;;0.50;0.50;;;;;;;;;;5139067;27;20510;-78
2023/03/10 14:10:40;;;;;;;1.23;0.80;;;;;;;;;;5139893;27;20530;-77
2023/03/10 14:13:40;;;;;;;1.33;0.60;;;;;;;;;;5139908;27;20465;-75
2023/03/10 14:16:24;;;;;;;1.13;0.90;;;;;;;;;;5138974;27;20442;-76
2023/03/10 14:18:56;;;;;;;0.60;0.60;;;;;;;;;;5137651;27;20450;-78
2023/03/10 14:21:38;;;;;;;0.60;0.60;;;;;;;;;;5138963;27;20417;-78
2023/03/10 14:24:10;;;;;;;0.50;0.50;;;;;;;;;;5138959;27;20565;-76
2023/03/10 14:26:39;;;;;;;0.80;0.80;;;;;;;;;;5138629;27;20437;-77
2023/03/10 14:29:13;;;;;;;0.50;0.50;;;;;;;;;;5138229;27;20453;-76
2023/03/10 14:31:41;;;;;;;0.83;0.60;;;;;;;;;;5138526;27;20472;-76
2023/03/10 14:34:24;;;;;;;0.93;0.60;;;;;;;;;;5139708;27;20495;-78
2023/03/10 14:36:52;;;;;;;0.73;0.73;;;;;;;;;;5137980;27;20449;-77
2023/03/10 14:39:40;;;;;;;0.90;0.50;;;;;;;;;;5138033;27;20452;-76
2023/03/10 14:42:12;;;;;;;0.70;0.70;;;;;;;;;;5137689;27;20475;-76
2023/03/10 14:44:52;;;;;;;0.40;0.40;;;;;;;;;;5135296;27;20477;-75
2023/03/10 14:47:25;;;;;;;0.70;0.70;;;;;;;;;;5137303;27;20449;-74
2023/03/10 14:50:06;;;;;;;0.63;0.63;;;;;;;;;;5137666;27;20503;-78
2023/03/10 14:52:44;;;;;;;0.40;0.40;;;;;;;;;;5138532;27;20988;-75
2023/03/10 14:55:30;;;;;;;0.50;0.50;;;;;;;;;;5135263;27;20921;-77
2023/03/10 15:00:52;;;;;;;0.90;0.67;;;;;;;;;;5131907;27;20433;-77
2023/03/10 15:03:26;;;;;;;0.80;0.77;;;;;;;;;;5134313;27;20509;-76
2023/03/10 15:06:17;;;;;;;0.40;0.40;;;;;;;;;;5135473;27;20449;-76
2023/03/10 15:09:00;;;;;;;1.47;0.70;;;;;;;;;;5135951;27;20452;-75
2023/03/10 15:11:32;;;;;;;0.60;0.60;;;;;;;;;;5134931;27;20449;-75
2023/03/10 15:14:12;;;;;;;0.70;0.70;;;;;;;;;;5135904;27;20971;-75
2023/03/10 15:16:45;;;;;;;0.40;0.40;;;;;;;;;;5130287;27;20496;-79
2023/03/10 15:19:27;;;;;;;0.50;0.50;;;;;;;;;;5116230;27;20466;-76
2023/03/10 15:22:04;;;;;;;0.40;0.40;;;;;;;;;;5114964;28;20457;-77
2023/03/10 15:24:43;;;;;;;0.43;0.43;;;;;;;;;;5115471;28;20474;-76
2023/03/10 15:27:20;;;;;;;0.60;0.60;;;;;;;;;;5114318;27;20462;-77
2023/03/10 15:29:48;;;;;;;0.50;0.50;;;;;;;;;;5113381;28;20476;-76
2023/03/10 15:32:22;;;;;;;0.40;0.40;;;;;;;;;;5112717;27;20946;-77
2023/03/10 15:34:50;;;;;;;0.50;0.50;;;;;;;;;;5112848;27;20467;-77
2023/03/10 15:37:27;;;;;;;0.50;0.50;;;;;;;;;;5113220;28;20439;-76
2023/03/10 15:40:07;;;;;;;0.57;0.57;;;;;;;;;;5113489;27;20455;-75
2023/03/10 15:42:35;;;;;;;0.63;0.63;;;;;;;;;;5113842;27;20802;-77
2023/03/10 15:45:12;;;;;;;0.50;0.50;;;;;;;;;;5118154;28;20484;-78
2023/03/10 15:47:46;;;;;;;1.70;0.70;;;;;;;;;;5118803;28;20508;-77
2023/03/10 15:50:23;;;;;;;0.50;0.50;;;;;;;;;;5117189;27;20446;-78
2023/03/10 15:53:04;;;;;;;0.60;0.60;;;;;;;;;;5120900;28;20465;-77
2023/03/10 15:55:39;;;;;;;0.73;0.73;;;;;;;;;;5123476;27;20458;-76
2023/03/10 15:58:08;;;;;;;1.80;0.80;;;;;;;;;;5125189;28;20460;-78